sensor_id;sensor_type;location;lat;lon;timestamp;temperature;humidity
15700;DHT22;7950;42.744;23.174;2022-07-17T00:00:22;19.30;99.90
15700;DHT22;7950;42.744;23.174;2022-07-17T00:03:01;19.30;99.90
15700;DHT22;7950;42.744;23.174;2022-07-17T00:05:29;19.30;99.90
15700;DHT22;7950;42.744;23.174;2022-07-17T00:07:58;19.30;99.90
15700;DHT22;7950;42.744;23.174;2022-07-17T00:10:27;19.30;99.90
15700;DHT22;7950;42.744;23.174;2022-07-17T00:12:55;19.30;99.90
15700;DHT22;7950;42.744;23.174;2022-07-17T00:15:24;19.30;99.90
15700;DHT22;7950;42.744;23.174;2022-07-17T00:17:53;19.20;99.90
15700;DHT22;7950;42.744;23.174;2022-07-17T00:20:24;19.30;99.90
15700;DHT22;7950;42.744;23.174;2022-07-17T00:22:53;19.30;99.90
15700;DHT22;7950;42.744;23.174;2022-07-17T00:25:23;19.30;99.90
15700;DHT22;7950;42.744;23.174;2022-07-17T00:27:53;19.30;99.90
15700;DHT22;7950;42.744;23.174;2022-07-17T00:30:47;19.20;99.90
15700;DHT22;7950;42.744;23.174;2022-07-17T00:33:16;19.20;99.90
15700;DHT22;7950;42.744;23.174;2022-07-17T00:35:46;19.20;99.90
15700;DHT22;7950;42.744;23.174;2022-07-17T00:38:15;19.20;99.90
15700;DHT22;7950;42.744;23.174;2022-07-17T00:40:45;19.20;99.90
15700;DHT22;7950;42.744;23.174;2022-07-17T00:43:13;19.20;99.90
15700;DHT22;7950;42.744;23.174;2022-07-17T00:45:42;19.30;99.90
15700;DHT22;7950;42.744;23.174;2022-07-17T00:51:23;19.20;99.90
15700;DHT22;7950;42.744;23.174;2022-07-17T00:53:53;19.20;99.90
15700;DHT22;7950;42.744;23.174;2022-07-17T00:56:27;19.10;99.90
15700;DHT22;7950;42.744;23.174;2022-07-17T00:58:57;19.00;99.90
15700;DHT22;7950;42.744;23.174;2022-07-17T01:01:26;19.00;99.90
15700;DHT22;7950;42.744;23.174;2022-07-17T01:03:55;19.00;99.90
15700;DHT22;7950;42.744;23.174;2022-07-17T01:06:25;19.00;99.90
15700;DHT22;7950;42.744;23.174;2022-07-17T01:08:54;19.00;99.90
15700;DHT22;7950;42.744;23.174;2022-07-17T01:11:29;19.10;99.90
15700;DHT22;7950;42.744;23.174;2022-07-17T01:13:58;19.10;99.90
15700;DHT22;7950;42.744;23.174;2022-07-17T01:16:27;19.10;99.90
15700;DHT22;7950;42.744;23.174;2022-07-17T01:18:57;19.10;99.90
15700;DHT22;7950;42.744;23.174;2022-07-17T01:21:38;19.20;99.90
15700;DHT22;7950;42.744;23.174;2022-07-17T01:24:08;19.20;99.90
15700;DHT22;7950;42.744;23.174;2022-07-17T01:26:37;19.20;99.90
15700;DHT22;7950;42.744;23.174;2022-07-17T01:29:09;19.30;99.90
15700;DHT22;7950;42.744;23.174;2022-07-17T01:31:39;19.30;99.90
15700;DHT22;7950;42.744;23.174;2022-07-17T01:34:09;19.20;99.90
15700;DHT22;7950;42.744;23.174;2022-07-17T01:36:42;19.20;99.90
15700;DHT22;7950;42.744;23.174;2022-07-17T01:39:11;19.20;99.90
15700;DHT22;7950;42.744;23.174;2022-07-17T01:41:40;19.20;99.90
15700;DHT22;7950;42.744;23.174;2022-07-17T01:44:08;19.20;99.90
15700;DHT22;7950;42.744;23.174;2022-07-17T01:46:37;19.20;99.90
15700;DHT22;7950;42.744;23.174;2022-07-17T01:49:06;19.20;99.90
15700;DHT22;7950;42.744;23.174;2022-07-17T01:51:35;19.10;99.90
15700;DHT22;7950;42.744;23.174;2022-07-17T01:54:06;19.10;99.90
15700;DHT22;7950;42.744;23.174;2022-07-17T01:56:35;19.00;99.90
15700;DHT22;7950;42.744;23.174;2022-07-17T01:59:04;19.00;99.90
15700;DHT22;7950;42.744;23.174;2022-07-17T02:01:33;19.10;99.90
15700;DHT22;7950;42.744;23.174;2022-07-17T02:04:02;19.10;99.90
15700;DHT22;7950;42.744;23.174;2022-07-17T02:06:31;19.00;99.90
15700;DHT22;7950;42.744;23.174;2022-07-17T02:09:00;19.00;99.90
15700;DHT22;7950;42.744;23.174;2022-07-17T02:11:30;19.00;99.90
15700;DHT22;7950;42.744;23.174;2022-07-17T02:13:59;19.00;99.90
15700;DHT22;7950;42.744;23.174;2022-07-17T02:16:28;18.90;99.90
15700;DHT22;7950;42.744;23.174;2022-07-17T02:18:56;18.90;99.90
15700;DHT22;7950;42.744;23.174;2022-07-17T02:21:25;19.00;99.90
15700;DHT22;7950;42.744;23.174;2022-07-17T02:23:54;19.00;99.90
15700;DHT22;7950;42.744;23.174;2022-07-17T02:26:23;19.00;99.90
15700;DHT22;7950;42.744;23.174;2022-07-17T02:28:53;18.90;99.90
15700;DHT22;7950;42.744;23.174;2022-07-17T02:31:22;18.90;99.90
15700;DHT22;7950;42.744;23.174;2022-07-17T02:34:16;18.90;99.90
15700;DHT22;7950;42.744;23.174;2022-07-17T02:36:44;19.00;99.90
15700;DHT22;7950;42.744;23.174;2022-07-17T02:39:13;19.10;99.90
15700;DHT22;7950;42.744;23.174;2022-07-17T02:41:42;19.10;99.90
15700;DHT22;7950;42.744;23.174;2022-07-17T02:44:38;19.20;99.90
15700;DHT22;7950;42.744;23.174;2022-07-17T02:47:06;19.10;99.90
15700;DHT22;7950;42.744;23.174;2022-07-17T02:49:35;19.00;99.90
15700;DHT22;7950;42.744;23.174;2022-07-17T02:52:04;18.90;99.90
15700;DHT22;7950;42.744;23.174;2022-07-17T02:54:33;18.90;99.90
15700;DHT22;7950;42.744;23.174;2022-07-17T02:57:01;18.90;99.90
15700;DHT22;7950;42.744;23.174;2022-07-17T02:59:30;18.80;99.90
15700;DHT22;7950;42.744;23.174;2022-07-17T03:02:00;18.80;99.90
15700;DHT22;7950;42.744;23.174;2022-07-17T03:04:29;18.80;99.90
15700;DHT22;7950;42.744;23.174;2022-07-17T03:06:58;18.80;99.90
15700;DHT22;7950;42.744;23.174;2022-07-17T03:09:27;18.70;99.90
15700;DHT22;7950;42.744;23.174;2022-07-17T03:11:55;18.70;99.90
15700;DHT22;7950;42.744;23.174;2022-07-17T03:14:24;18.60;99.90
15700;DHT22;7950;42.744;23.174;2022-07-17T03:16:53;18.60;99.90
15700;DHT22;7950;42.744;23.174;2022-07-17T03:19:24;18.60;99.90
15700;DHT22;7950;42.744;23.174;2022-07-17T03:21:53;18.50;99.90
15700;DHT22;7950;42.744;23.174;2022-07-17T03:24:22;18.50;99.90
15700;DHT22;7950;42.744;23.174;2022-07-17T03:26:51;18.40;99.90
15700;DHT22;7950;42.744;23.174;2022-07-17T03:29:20;18.40;99.90
15700;DHT22;7950;42.744;23.174;2022-07-17T03:31:49;18.40;99.90
15700;DHT22;7950;42.744;23.174;2022-07-17T03:34:17;18.40;99.90
15700;DHT22;7950;42.744;23.174;2022-07-17T03:36:47;18.40;99.90
15700;DHT22;7950;42.744;23.174;2022-07-17T03:39:16;18.40;99.90
15700;DHT22;7950;42.744;23.174;2022-07-17T03:41:45;18.40;99.90
15700;DHT22;7950;42.744;23.174;2022-07-17T03:44:14;18.40;99.90
15700;DHT22;7950;42.744;23.174;2022-07-17T03:46:43;18.40;99.90
15700;DHT22;7950;42.744;23.174;2022-07-17T03:49:12;18.40;99.90
15700;DHT22;7950;42.744;23.174;2022-07-17T03:51:41;18.40;99.90
15700;DHT22;7950;42.744;23.174;2022-07-17T03:54:11;18.50;99.90
15700;DHT22;7950;42.744;23.174;2022-07-17T03:56:40;18.60;99.90
15700;DHT22;7950;42.744;23.174;2022-07-17T03:59:08;18.60;99.90
15700;DHT22;7950;42.744;23.174;2022-07-17T04:01:37;18.60;99.90
15700;DHT22;7950;42.744;23.174;2022-07-17T04:04:06;18.70;99.90
15700;DHT22;7950;42.744;23.174;2022-07-17T04:06:35;18.80;99.90
15700;DHT22;7950;42.744;23.174;2022-07-17T04:09:04;18.80;99.90
15700;DHT22;7950;42.744;23.174;2022-07-17T04:11:35;18.90;99.90
15700;DHT22;7950;42.744;23.174;2022-07-17T04:14:04;18.90;99.90
15700;DHT22;7950;42.744;23.174;2022-07-17T04:16:33;19.10;99.90
15700;DHT22;7950;42.744;23.174;2022-07-17T04:19:02;19.20;99.90
15700;DHT22;7950;42.744;23.174;2022-07-17T04:21:30;19.30;99.90
15700;DHT22;7950;42.744;23.174;2022-07-17T04:23:59;19.40;99.90
15700;DHT22;7950;42.744;23.174;2022-07-17T04:26:28;19.60;99.90
15700;DHT22;7950;42.744;23.174;2022-07-17T04:29:01;19.70;99.90
15700;DHT22;7950;42.744;23.174;2022-07-17T04:31:30;19.80;99.90
15700;DHT22;7950;42.744;23.174;2022-07-17T04:33:59;19.90;99.90
15700;DHT22;7950;42.744;23.174;2022-07-17T04:36:28;20.00;99.90
15700;DHT22;7950;42.744;23.174;2022-07-17T04:38:56;20.10;99.90
15700;DHT22;7950;42.744;23.174;2022-07-17T04:41:25;20.20;99.90
15700;DHT22;7950;42.744;23.174;2022-07-17T04:43:54;20.40;99.90
15700;DHT22;7950;42.744;23.174;2022-07-17T04:46:24;20.50;99.90
15700;DHT22;7950;42.744;23.174;2022-07-17T04:48:52;20.60;99.90
15700;DHT22;7950;42.744;23.174;2022-07-17T04:51:21;20.70;99.90
15700;DHT22;7950;42.744;23.174;2022-07-17T04:53:50;20.70;99.90
15700;DHT22;7950;42.744;23.174;2022-07-17T04:56:25;20.90;99.90
15700;DHT22;7950;42.744;23.174;2022-07-17T05:10:58;21.00;99.90
15700;DHT22;7950;42.744;23.174;2022-07-17T05:13:27;21.70;99.90
15700;DHT22;7950;42.744;23.174;2022-07-17T05:15:55;21.70;99.90
15700;DHT22;7950;42.744;23.174;2022-07-17T05:18:24;21.80;99.90
15700;DHT22;7950;42.744;23.174;2022-07-17T05:20:52;21.90;99.90
15700;DHT22;7950;42.744;23.174;2022-07-17T05:23:21;22.00;99.90
15700;DHT22;7950;42.744;23.174;2022-07-17T05:25:50;22.10;99.90
15700;DHT22;7950;42.744;23.174;2022-07-17T05:28:19;22.10;99.90
15700;DHT22;7950;42.744;23.174;2022-07-17T05:30:48;22.20;99.90
15700;DHT22;7950;42.744;23.174;2022-07-17T05:33:16;22.30;99.90
15700;DHT22;7950;42.744;23.174;2022-07-17T05:35:45;22.40;99.90
15700;DHT22;7950;42.744;23.174;2022-07-17T05:38:13;22.60;99.90
15700;DHT22;7950;42.744;23.174;2022-07-17T05:40:42;22.80;99.90
15700;DHT22;7950;42.744;23.174;2022-07-17T05:43:11;22.90;99.90
15700;DHT22;7950;42.744;23.174;2022-07-17T05:45:41;23.00;99.90
15700;DHT22;7950;42.744;23.174;2022-07-17T05:48:09;23.10;99.90
15700;DHT22;7950;42.744;23.174;2022-07-17T05:50:38;23.20;99.90
15700;DHT22;7950;42.744;23.174;2022-07-17T05:53:06;23.30;99.90
15700;DHT22;7950;42.744;23.174;2022-07-17T05:55:35;23.40;99.90
15700;DHT22;7950;42.744;23.174;2022-07-17T05:58:04;23.50;99.90
15700;DHT22;7950;42.744;23.174;2022-07-17T06:00:33;23.60;99.90
15700;DHT22;7950;42.744;23.174;2022-07-17T06:03:03;23.70;99.90
15700;DHT22;7950;42.744;23.174;2022-07-17T06:05:32;23.70;99.90
15700;DHT22;7950;42.744;23.174;2022-07-17T06:08:01;23.80;99.90
15700;DHT22;7950;42.744;23.174;2022-07-17T06:10:30;23.90;99.50
15700;DHT22;7950;42.744;23.174;2022-07-17T06:12:58;24.00;98.80
15700;DHT22;7950;42.744;23.174;2022-07-17T06:15:49;24.10;99.60
15700;DHT22;7950;42.744;23.174;2022-07-17T06:18:19;24.20;97.80
15700;DHT22;7950;42.744;23.174;2022-07-17T06:20:47;24.30;99.70
15700;DHT22;7950;42.744;23.174;2022-07-17T06:23:16;24.40;98.30
15700;DHT22;7950;42.744;23.174;2022-07-17T06:25:45;24.50;98.60
15700;DHT22;7950;42.744;23.174;2022-07-17T06:28:13;24.60;97.30
15700;DHT22;7950;42.744;23.174;2022-07-17T06:30:42;24.80;95.60
15700;DHT22;7950;42.744;23.174;2022-07-17T06:33:10;24.80;95.00
15700;DHT22;7950;42.744;23.174;2022-07-17T06:35:40;24.80;91.80
15700;DHT22;7950;42.744;23.174;2022-07-17T06:38:12;24.80;93.20
15700;DHT22;7950;42.744;23.174;2022-07-17T06:40:40;24.90;91.60
15700;DHT22;7950;42.744;23.174;2022-07-17T06:43:09;25.00;92.50
15700;DHT22;7950;42.744;23.174;2022-07-17T06:45:38;25.10;92.40
15700;DHT22;7950;42.744;23.174;2022-07-17T06:48:06;25.20;86.30
15700;DHT22;7950;42.744;23.174;2022-07-17T06:50:36;25.20;84.10
15700;DHT22;7950;42.744;23.174;2022-07-17T06:53:06;25.20;84.30
15700;DHT22;7950;42.744;23.174;2022-07-17T06:55:34;25.20;84.40
15700;DHT22;7950;42.744;23.174;2022-07-17T06:58:03;25.30;82.50
15700;DHT22;7950;42.744;23.174;2022-07-17T07:00:31;25.40;82.70
15700;DHT22;7950;42.744;23.174;2022-07-17T07:03:00;25.40;80.20
15700;DHT22;7950;42.744;23.174;2022-07-17T07:05:29;25.30;79.40
15700;DHT22;7950;42.744;23.174;2022-07-17T07:07:57;25.40;80.60
15700;DHT22;7950;42.744;23.174;2022-07-17T07:10:27;25.50;79.80
15700;DHT22;7950;42.744;23.174;2022-07-17T07:12:56;25.70;79.00
15700;DHT22;7950;42.744;23.174;2022-07-17T07:15:24;25.70;78.70
15700;DHT22;7950;42.744;23.174;2022-07-17T07:17:53;25.80;78.20
15700;DHT22;7950;42.744;23.174;2022-07-17T07:20:21;25.90;76.60
15700;DHT22;7950;42.744;23.174;2022-07-17T07:22:50;25.90;78.30
15700;DHT22;7950;42.744;23.174;2022-07-17T07:25:22;26.00;78.40
15700;DHT22;7950;42.744;23.174;2022-07-17T07:27:52;26.20;78.90
15700;DHT22;7950;42.744;23.174;2022-07-17T07:30:21;26.30;77.80
15700;DHT22;7950;42.744;23.174;2022-07-17T07:32:50;26.50;78.30
15700;DHT22;7950;42.744;23.174;2022-07-17T07:35:18;26.60;77.10
15700;DHT22;7950;42.744;23.174;2022-07-17T07:37:47;26.70;75.10
15700;DHT22;7950;42.744;23.174;2022-07-17T07:40:15;26.80;75.50
15700;DHT22;7950;42.744;23.174;2022-07-17T07:42:44;26.90;74.20
15700;DHT22;7950;42.744;23.174;2022-07-17T07:45:14;27.00;75.20
15700;DHT22;7950;42.744;23.174;2022-07-17T07:47:44;27.10;77.80
15700;DHT22;7950;42.744;23.174;2022-07-17T07:50:14;27.20;74.90
15700;DHT22;7950;42.744;23.174;2022-07-17T07:52:43;27.30;73.30
15700;DHT22;7950;42.744;23.174;2022-07-17T07:55:13;27.20;71.90
15700;DHT22;7950;42.744;23.174;2022-07-17T07:57:47;27.10;71.90
15700;DHT22;7950;42.744;23.174;2022-07-17T08:00:17;27.10;74.10
15700;DHT22;7950;42.744;23.174;2022-07-17T08:02:47;27.20;74.10
15700;DHT22;7950;42.744;23.174;2022-07-17T08:05:15;27.30;74.60
15700;DHT22;7950;42.744;23.174;2022-07-17T08:07:44;27.50;74.20
15700;DHT22;7950;42.744;23.174;2022-07-17T08:10:12;27.60;72.30
15700;DHT22;7950;42.744;23.174;2022-07-17T08:12:41;27.70;73.00
15700;DHT22;7950;42.744;23.174;2022-07-17T08:15:12;27.80;72.50
15700;DHT22;7950;42.744;23.174;2022-07-17T08:17:44;27.90;70.90
15700;DHT22;7950;42.744;23.174;2022-07-17T08:20:13;27.90;69.60
15700;DHT22;7950;42.744;23.174;2022-07-17T08:22:44;28.00;70.30
15700;DHT22;7950;42.744;23.174;2022-07-17T08:25:45;28.10;70.10
15700;DHT22;7950;42.744;23.174;2022-07-17T08:28:14;28.20;70.00
15700;DHT22;7950;42.744;23.174;2022-07-17T08:31:08;28.20;66.60
15700;DHT22;7950;42.744;23.174;2022-07-17T08:33:38;28.20;68.40
15700;DHT22;7950;42.744;23.174;2022-07-17T08:36:07;28.30;70.00
15700;DHT22;7950;42.744;23.174;2022-07-17T08:38:35;28.30;68.30
15700;DHT22;7950;42.744;23.174;2022-07-17T08:41:04;28.40;66.30
15700;DHT22;7950;42.744;23.174;2022-07-17T08:43:33;28.40;68.30
15700;DHT22;7950;42.744;23.174;2022-07-17T08:46:10;28.50;68.00
15700;DHT22;7950;42.744;23.174;2022-07-17T08:48:42;28.60;68.90
15700;DHT22;7950;42.744;23.174;2022-07-17T08:51:16;28.70;69.20
15700;DHT22;7950;42.744;23.174;2022-07-17T08:53:45;28.80;69.50
15700;DHT22;7950;42.744;23.174;2022-07-17T08:56:14;29.00;70.30
15700;DHT22;7950;42.744;23.174;2022-07-17T08:58:43;29.10;66.40
15700;DHT22;7950;42.744;23.174;2022-07-17T09:01:11;29.20;65.00
15700;DHT22;7950;42.744;23.174;2022-07-17T09:03:41;29.20;65.70
15700;DHT22;7950;42.744;23.174;2022-07-17T09:06:21;29.20;66.70
15700;DHT22;7950;42.744;23.174;2022-07-17T09:09:03;29.30;65.00
15700;DHT22;7950;42.744;23.174;2022-07-17T09:11:42;29.40;65.20
15700;DHT22;7950;42.744;23.174;2022-07-17T09:14:13;29.40;65.60
15700;DHT22;7950;42.744;23.174;2022-07-17T09:16:53;29.40;64.00
15700;DHT22;7950;42.744;23.174;2022-07-17T09:19:27;29.50;63.10
15700;DHT22;7950;42.744;23.174;2022-07-17T09:22:07;29.40;62.80
15700;DHT22;7950;42.744;23.174;2022-07-17T09:24:42;29.30;63.40
15700;DHT22;7950;42.744;23.174;2022-07-17T09:27:15;29.30;64.20
15700;DHT22;7950;42.744;23.174;2022-07-17T09:29:58;29.20;65.00
15700;DHT22;7950;42.744;23.174;2022-07-17T09:32:30;29.30;67.40
15700;DHT22;7950;42.744;23.174;2022-07-17T09:35:04;29.20;63.50
15700;DHT22;7950;42.744;23.174;2022-07-17T09:37:36;29.10;64.60
15700;DHT22;7950;42.744;23.174;2022-07-17T09:40:09;28.90;65.40
15700;DHT22;7950;42.744;23.174;2022-07-17T09:42:59;28.80;62.70
15700;DHT22;7950;42.744;23.174;2022-07-17T09:45:27;28.60;64.80
15700;DHT22;7950;42.744;23.174;2022-07-17T09:47:56;28.60;66.50
15700;DHT22;7950;42.744;23.174;2022-07-17T09:50:27;28.80;65.60
15700;DHT22;7950;42.744;23.174;2022-07-17T09:52:57;28.60;64.50
15700;DHT22;7950;42.744;23.174;2022-07-17T09:55:28;28.50;64.00
15700;DHT22;7950;42.744;23.174;2022-07-17T09:58:18;28.50;66.30
15700;DHT22;7950;42.744;23.174;2022-07-17T10:00:50;28.70;64.70
15700;DHT22;7950;42.744;23.174;2022-07-17T10:03:19;28.90;63.60
15700;DHT22;7950;42.744;23.174;2022-07-17T10:05:49;28.90;62.60
15700;DHT22;7950;42.744;23.174;2022-07-17T10:08:19;28.70;62.40
15700;DHT22;7950;42.744;23.174;2022-07-17T10:11:12;28.80;64.40
15700;DHT22;7950;42.744;23.174;2022-07-17T10:13:44;28.90;62.60
15700;DHT22;7950;42.744;23.174;2022-07-17T10:16:38;29.00;62.90
15700;DHT22;7950;42.744;23.174;2022-07-17T10:19:18;29.00;61.90
15700;DHT22;7950;42.744;23.174;2022-07-17T10:21:56;29.10;60.10
15700;DHT22;7950;42.744;23.174;2022-07-17T10:24:28;29.00;60.40
15700;DHT22;7950;42.744;23.174;2022-07-17T10:27:02;29.00;61.50
15700;DHT22;7950;42.744;23.174;2022-07-17T10:29:59;29.10;62.20
15700;DHT22;7950;42.744;23.174;2022-07-17T10:32:29;29.40;61.80
15700;DHT22;7950;42.744;23.174;2022-07-17T10:34:59;29.70;62.20
15700;DHT22;7950;42.744;23.174;2022-07-17T10:37:39;30.00;62.00
15700;DHT22;7950;42.744;23.174;2022-07-17T10:40:11;30.30;61.20
15700;DHT22;7950;42.744;23.174;2022-07-17T10:42:53;30.50;58.90
15700;DHT22;7950;42.744;23.174;2022-07-17T10:45:29;30.60;57.90
15700;DHT22;7950;42.744;23.174;2022-07-17T10:48:03;30.70;59.60
15700;DHT22;7950;42.744;23.174;2022-07-17T10:50:35;30.60;57.80
15700;DHT22;7950;42.744;23.174;2022-07-17T10:53:13;30.60;58.80
15700;DHT22;7950;42.744;23.174;2022-07-17T10:55:52;30.70;58.70
15700;DHT22;7950;42.744;23.174;2022-07-17T10:58:46;30.90;57.90
15700;DHT22;7950;42.744;23.174;2022-07-17T11:01:16;31.00;56.50
15700;DHT22;7950;42.744;23.174;2022-07-17T11:03:50;30.70;57.20
15700;DHT22;7950;42.744;23.174;2022-07-17T11:06:20;30.70;58.40
15700;DHT22;7950;42.744;23.174;2022-07-17T11:08:54;30.80;58.70
15700;DHT22;7950;42.744;23.174;2022-07-17T11:11:41;31.00;58.80
15700;DHT22;7950;42.744;23.174;2022-07-17T11:14:14;31.20;58.30
15700;DHT22;7950;42.744;23.174;2022-07-17T11:16:47;31.30;57.30
15700;DHT22;7950;42.744;23.174;2022-07-17T11:19:33;31.40;56.60
15700;DHT22;7950;42.744;23.174;2022-07-17T11:22:05;31.40;57.40
15700;DHT22;7950;42.744;23.174;2022-07-17T11:24:38;31.50;57.10
15700;DHT22;7950;42.744;23.174;2022-07-17T11:27:09;31.30;56.50
15700;DHT22;7950;42.744;23.174;2022-07-17T11:29:38;31.30;58.30
15700;DHT22;7950;42.744;23.174;2022-07-17T11:32:08;31.40;58.10
15700;DHT22;7950;42.744;23.174;2022-07-17T11:34:37;31.50;58.00
15700;DHT22;7950;42.744;23.174;2022-07-17T11:37:07;31.60;58.50
15700;DHT22;7950;42.744;23.174;2022-07-17T11:39:44;31.50;56.00
15700;DHT22;7950;42.744;23.174;2022-07-17T11:42:15;31.30;56.70
15700;DHT22;7950;42.744;23.174;2022-07-17T11:44:45;31.10;57.00
15700;DHT22;7950;42.744;23.174;2022-07-17T11:47:21;30.90;57.10
15700;DHT22;7950;42.744;23.174;2022-07-17T11:49:51;30.70;56.50
15700;DHT22;7950;42.744;23.174;2022-07-17T11:52:20;30.40;57.20
15700;DHT22;7950;42.744;23.174;2022-07-17T11:54:58;30.20;58.80
15700;DHT22;7950;42.744;23.174;2022-07-17T11:57:27;30.10;59.30
15700;DHT22;7950;42.744;23.174;2022-07-17T12:00:05;30.10;59.40
15700;DHT22;7950;42.744;23.174;2022-07-17T12:02:35;29.90;61.20
15700;DHT22;7950;42.744;23.174;2022-07-17T12:05:04;30.00;61.30
15700;DHT22;7950;42.744;23.174;2022-07-17T12:07:42;30.20;63.50
15700;DHT22;7950;42.744;23.174;2022-07-17T12:10:16;30.40;62.90
15700;DHT22;7950;42.744;23.174;2022-07-17T12:12:53;30.70;62.90
15700;DHT22;7950;42.744;23.174;2022-07-17T12:15:35;30.80;62.90
15700;DHT22;7950;42.744;23.174;2022-07-17T12:18:05;30.90;61.30
15700;DHT22;7950;42.744;23.174;2022-07-17T12:20:44;31.00;61.70
15700;DHT22;7950;42.744;23.174;2022-07-17T12:23:26;31.00;63.10
15700;DHT22;7950;42.744;23.174;2022-07-17T12:26:07;31.20;61.70
15700;DHT22;7950;42.744;23.174;2022-07-17T12:28:38;31.10;62.30
15700;DHT22;7950;42.744;23.174;2022-07-17T12:31:08;30.80;60.90
15700;DHT22;7950;42.744;23.174;2022-07-17T12:33:38;30.50;62.20
15700;DHT22;7950;42.744;23.174;2022-07-17T12:36:07;30.30;61.70
15700;DHT22;7950;42.744;23.174;2022-07-17T12:38:36;30.10;62.80
15700;DHT22;7950;42.744;23.174;2022-07-17T12:41:06;30.20;63.60
15700;DHT22;7950;42.744;23.174;2022-07-17T12:43:35;30.10;63.60
15700;DHT22;7950;42.744;23.174;2022-07-17T12:46:03;30.00;62.50
15700;DHT22;7950;42.744;23.174;2022-07-17T12:48:41;30.10;62.40
15700;DHT22;7950;42.744;23.174;2022-07-17T12:51:11;30.00;63.00
15700;DHT22;7950;42.744;23.174;2022-07-17T12:53:42;30.00;63.10
15700;DHT22;7950;42.744;23.174;2022-07-17T12:56:13;30.10;62.00
15700;DHT22;7950;42.744;23.174;2022-07-17T12:58:41;30.20;63.10
15700;DHT22;7950;42.744;23.174;2022-07-17T13:01:11;30.50;63.60
15700;DHT22;7950;42.744;23.174;2022-07-17T13:03:40;30.60;62.90
15700;DHT22;7950;42.744;23.174;2022-07-17T13:06:09;30.80;62.60
15700;DHT22;7950;42.744;23.174;2022-07-17T13:08:38;30.70;62.90
15700;DHT22;7950;42.744;23.174;2022-07-17T13:11:12;30.80;62.30
15700;DHT22;7950;42.744;23.174;2022-07-17T13:13:41;30.70;62.40
15700;DHT22;7950;42.744;23.174;2022-07-17T13:16:10;30.60;62.30
15700;DHT22;7950;42.744;23.174;2022-07-17T13:18:40;30.40;62.50
15700;DHT22;7950;42.744;23.174;2022-07-17T13:21:09;30.40;63.80
15700;DHT22;7950;42.744;23.174;2022-07-17T13:23:41;30.30;63.20
15700;DHT22;7950;42.744;23.174;2022-07-17T13:26:10;30.30;64.50
15700;DHT22;7950;42.744;23.174;2022-07-17T13:28:46;30.40;63.10
15700;DHT22;7950;42.744;23.174;2022-07-17T13:31:15;30.60;64.30
15700;DHT22;7950;42.744;23.174;2022-07-17T13:33:44;30.70;64.20
15700;DHT22;7950;42.744;23.174;2022-07-17T13:36:13;30.70;62.70
15700;DHT22;7950;42.744;23.174;2022-07-17T13:38:41;30.70;62.40
15700;DHT22;7950;42.744;23.174;2022-07-17T13:41:10;30.70;62.40
15700;DHT22;7950;42.744;23.174;2022-07-17T13:44:05;30.70;62.80
15700;DHT22;7950;42.744;23.174;2022-07-17T13:46:35;30.50;62.70
15700;DHT22;7950;42.744;23.174;2022-07-17T13:49:03;30.30;63.70
15700;DHT22;7950;42.744;23.174;2022-07-17T13:51:33;30.20;64.60
15700;DHT22;7950;42.744;23.174;2022-07-17T13:54:02;30.20;64.90
15700;DHT22;7950;42.744;23.174;2022-07-17T13:56:31;30.10;65.60
15700;DHT22;7950;42.744;23.174;2022-07-17T13:59:00;30.20;64.40
15700;DHT22;7950;42.744;23.174;2022-07-17T14:01:30;30.30;64.10
15700;DHT22;7950;42.744;23.174;2022-07-17T14:04:01;30.40;64.30
15700;DHT22;7950;42.744;23.174;2022-07-17T14:06:29;30.50;64.80
15700;DHT22;7950;42.744;23.174;2022-07-17T14:08:58;30.60;63.90
15700;DHT22;7950;42.744;23.174;2022-07-17T14:11:27;30.50;64.10
15700;DHT22;7950;42.744;23.174;2022-07-17T14:13:55;30.30;63.40
15700;DHT22;7950;42.744;23.174;2022-07-17T14:16:24;30.20;64.40
15700;DHT22;7950;42.744;23.174;2022-07-17T14:18:55;30.10;64.10
15700;DHT22;7950;42.744;23.174;2022-07-17T14:21:27;29.90;63.80
15700;DHT22;7950;42.744;23.174;2022-07-17T14:23:57;29.80;64.10
15700;DHT22;7950;42.744;23.174;2022-07-17T14:26:28;29.70;64.80
15700;DHT22;7950;42.744;23.174;2022-07-17T14:29:22;29.70;63.40
15700;DHT22;7950;42.744;23.174;2022-07-17T14:31:51;29.70;64.40
15700;DHT22;7950;42.744;23.174;2022-07-17T14:34:22;29.70;64.50
15700;DHT22;7950;42.744;23.174;2022-07-17T14:37:03;29.70;64.30
15700;DHT22;7950;42.744;23.174;2022-07-17T14:39:34;29.70;63.80
15700;DHT22;7950;42.744;23.174;2022-07-17T14:42:03;29.60;64.30
15700;DHT22;7950;42.744;23.174;2022-07-17T14:44:32;29.60;64.90
15700;DHT22;7950;42.744;23.174;2022-07-17T14:47:29;29.60;65.70
15700;DHT22;7950;42.744;23.174;2022-07-17T14:49:59;29.60;64.40
15700;DHT22;7950;42.744;23.174;2022-07-17T14:52:28;29.60;64.10
15700;DHT22;7950;42.744;23.174;2022-07-17T14:54:56;29.60;64.70
15700;DHT22;7950;42.744;23.174;2022-07-17T14:57:25;29.50;63.60
15700;DHT22;7950;42.744;23.174;2022-07-17T14:59:53;29.40;63.90
15700;DHT22;7950;42.744;23.174;2022-07-17T15:02:22;29.20;64.00
15700;DHT22;7950;42.744;23.174;2022-07-17T15:04:51;29.20;64.40
15700;DHT22;7950;42.744;23.174;2022-07-17T15:07:20;29.20;65.00
15700;DHT22;7950;42.744;23.174;2022-07-17T15:09:49;29.20;64.50
15700;DHT22;7950;42.744;23.174;2022-07-17T15:12:18;29.10;64.00
15700;DHT22;7950;42.744;23.174;2022-07-17T15:14:47;29.00;64.90
15700;DHT22;7950;42.744;23.174;2022-07-17T15:17:24;29.00;65.10
15700;DHT22;7950;42.744;23.174;2022-07-17T15:19:53;28.90;64.60
15700;DHT22;7950;42.744;23.174;2022-07-17T15:22:23;28.90;65.60
15700;DHT22;7950;42.744;23.174;2022-07-17T15:24:52;29.00;65.10
15700;DHT22;7950;42.744;23.174;2022-07-17T15:27:21;28.90;64.70
15700;DHT22;7950;42.744;23.174;2022-07-17T15:29:50;28.90;64.90
15700;DHT22;7950;42.744;23.174;2022-07-17T15:32:19;28.70;65.00
15700;DHT22;7950;42.744;23.174;2022-07-17T15:34:47;28.70;64.90
15700;DHT22;7950;42.744;23.174;2022-07-17T15:37:16;28.70;64.60
15700;DHT22;7950;42.744;23.174;2022-07-17T15:39:47;28.70;64.10
15700;DHT22;7950;42.744;23.174;2022-07-17T15:42:16;28.60;65.30
15700;DHT22;7950;42.744;23.174;2022-07-17T15:44:44;28.60;64.30
15700;DHT22;7950;42.744;23.174;2022-07-17T15:47:13;28.60;63.20
15700;DHT22;7950;42.744;23.174;2022-07-17T15:49:42;28.50;63.70
15700;DHT22;7950;42.744;23.174;2022-07-17T15:52:11;28.40;63.60
15700;DHT22;7950;42.744;23.174;2022-07-17T15:54:40;28.30;64.70
15700;DHT22;7950;42.744;23.174;2022-07-17T15:57:10;28.30;63.80
15700;DHT22;7950;42.744;23.174;2022-07-17T15:59:39;28.40;64.10
15700;DHT22;7950;42.744;23.174;2022-07-17T16:02:07;28.30;63.30
15700;DHT22;7950;42.744;23.174;2022-07-17T16:04:36;28.30;64.00
15700;DHT22;7950;42.744;23.174;2022-07-17T16:07:05;28.30;63.10
15700;DHT22;7950;42.744;23.174;2022-07-17T16:09:58;28.30;63.60